Time,TemperatureF,DewpointF,PressureIn,WindDirection,WindDirectionDegrees,WindSpeedMPH,WindSpeedGustMPH,Humidity,HourlyPrecipIn,Conditions,Clouds,dailyrainin,SoftwareType,DateUTC
2013-10-04 00:28:00,67.0,66.0,-100.00,SE,140,4.0,6.0,93,0.00,,,-99.99,,2013-10-04 05:28:00,
2013-10-04 00:46:00,68.0,66.0,-100.00,SE,140,7.0,9.0,93,0.00,,,-99.99,,2013-10-04 05:46:00,
2013-10-04 01:25:00,69.0,66.0,-100.00,SSE,155,7.0,11.0,90,0.00,,,-99.99,,2013-10-04 06:25:00,
2013-10-04 01:45:00,69.0,66.0,-100.00,SSE,150,7.0,12.0,91,0.00,,,-99.99,,2013-10-04 06:45:00,
2013-10-04 02:25:00,68.0,66.0,-100.00,SE,145,5.0,7.0,94,0.00,,,-99.99,,2013-10-04 07:25:00,
2013-10-04 02:45:00,68.0,67.0,-100.00,SE,130,4.0,7.0,95,0.00,,,-99.99,,2013-10-04 07:45:00,
2013-10-04 03:25:00,67.0,66.0,-100.00,SE,130,4.0,6.0,96,0.00,,,-99.99,,2013-10-04 08:25:00,
2013-10-04 03:45:00,67.0,66.0,-100.00,SE,145,4.0,6.0,97,0.00,,,-99.99,,2013-10-04 08:45:00,
2013-10-04 04:25:00,67.0,67.0,-100.00,SE,135,4.0,6.0,97,0.00,,,-99.99,,2013-10-04 09:25:00,
2013-10-04 04:47:00,69.0,68.0,-100.00,WSW,240,6.0,15.0,97,0.00,,,-99.99,,2013-10-04 09:47:00,
2013-10-04 05:28:00,69.0,68.0,-100.00,NE,45,1.0,2.0,97,0.00,,,-99.99,,2013-10-04 10:28:00,
2013-10-04 05:47:00,68.0,68.0,-100.00,East,95,4.0,4.0,97,0.00,,,-99.99,,2013-10-04 10:47:00,
2013-10-04 06:27:00,67.0,67.0,-100.00,ENE,60,6.0,10.0,97,0.00,,,-99.99,,2013-10-04 11:27:00,
2013-10-04 06:47:00,66.0,65.0,-100.00,ENE,65,6.0,9.0,97,0.00,,,-99.99,,2013-10-04 11:47:00,
2013-10-04 07:27:00,65.0,64.0,-100.00,ENE,75,7.0,12.0,97,0.74,,,-99.99,,2013-10-04 12:27:00,
2013-10-04 07:47:00,65.0,64.0,-100.00,East,80,6.0,9.0,97,0.00,,,-99.99,,2013-10-04 12:47:00,
2013-10-04 08:27:00,65.0,65.0,-100.00,East,100,6.0,9.0,98,0.00,,,-99.99,,2013-10-04 13:27:00,
2013-10-04 08:46:00,65.0,65.0,-100.00,NNE,20,7.0,9.0,99,0.03,,,-99.99,,2013-10-04 13:46:00,
2013-10-04 09:27:00,64.0,64.0,-100.00,North,0,14.0,24.0,99,7.43,,,-99.99,,2013-10-04 14:27:00,
2013-10-04 09:47:00,64.0,64.0,-100.00,NNW,345,9.0,16.0,99,0.08,,,-99.99,,2013-10-04 14:47:00,
2013-10-04 10:27:00,65.0,65.0,-100.00,NNE,30,6.0,8.0,99,0.00,,,-99.99,,2013-10-04 15:27:00,
2013-10-04 10:47:00,66.0,65.0,-100.00,NE,45,6.0,7.0,99,0.00,,,-99.99,,2013-10-04 15:47:00,
2013-10-04 11:27:00,67.0,66.0,-100.00,East,90,5.0,9.0,99,0.00,,,-99.99,,2013-10-04 16:27:00,
2013-10-04 11:47:00,67.0,67.0,-100.00,East,85,6.0,9.0,99,0.00,,,-99.99,,2013-10-04 16:47:00,
2013-10-04 12:28:00,67.0,67.0,-100.00,East,100,6.0,9.0,98,0.00,,,-99.99,,2013-10-04 17:28:00,
2013-10-04 13:28:00,74.0,69.0,-100.00,ESE,120,6.0,11.0,84,0.00,,,-99.99,,2013-10-04 18:28:00,
2013-10-04 13:48:00,75.0,69.0,-100.00,SE,140,7.0,11.0,80,0.00,,,-99.99,,2013-10-04 18:48:00,
2013-10-04 14:22:00,77.0,69.0,-100.00,SE,140,10.0,21.0,77,0.00,,,-99.99,,2013-10-04 19:22:00,
2013-10-04 14:43:00,78.0,69.0,-100.00,SE,145,11.0,17.0,74,0.00,,,-99.99,,2013-10-04 19:43:00,
2013-10-04 15:22:00,79.0,69.0,-100.00,SSE,155,12.0,23.0,71,0.00,,,-99.99,,2013-10-04 20:22:00,
2013-10-04 15:43:00,78.0,69.0,-100.00,SSE,155,9.0,16.0,72,0.00,,,-99.99,,2013-10-04 20:43:00,
2013-10-04 16:22:00,78.0,69.0,-100.00,SE,130,8.0,12.0,75,0.00,,,-99.99,,2013-10-04 21:22:00,
2013-10-04 16:43:00,78.0,70.0,-100.00,SE,140,7.0,10.0,76,0.00,,,-99.99,,2013-10-04 21:43:00,
2013-10-04 17:23:00,79.0,71.0,-100.00,SE,135,7.0,10.0,75,0.00,,,-99.99,,2013-10-04 22:23:00,
2013-10-04 17:42:00,80.0,70.0,-100.00,SE,130,7.0,13.0,72,0.00,,,-99.99,,2013-10-04 22:42:00,
2013-10-04 18:22:00,80.0,71.0,-100.00,SE,135,9.0,12.0,73,0.00,,,-99.99,,2013-10-04 23:22:00,
2013-10-04 18:42:00,81.0,71.0,-100.00,SE,130,11.0,13.0,71,0.00,,,-99.99,,2013-10-04 23:42:00,
2013-10-04 19:22:00,78.0,70.0,-100.00,SSE,150,9.0,12.0,75,0.00,,,-99.99,,2013-10-05 00:22:00,
2013-10-04 19:42:00,78.0,69.0,-100.00,SE,145,9.0,13.0,74,0.00,,,-99.99,,2013-10-05 00:42:00,
2013-10-04 20:21:00,77.0,68.0,-100.00,SSE,160,7.0,9.0,75,0.00,,,-99.99,,2013-10-05 01:21:00,
2013-10-04 21:22:00,77.0,68.0,-100.00,SSE,160,7.0,11.0,73,0.00,,,-99.99,,2013-10-05 02:22:00,
2013-10-04 21:42:00,77.0,68.0,-100.00,South,170,9.0,12.0,73,0.00,,,-99.99,,2013-10-05 02:42:00,
2013-10-04 22:23:00,77.0,68.0,-100.00,South,175,11.0,14.0,73,0.00,,,-99.99,,2013-10-05 03:23:00,
2013-10-04 22:45:00,77.0,68.0,-100.00,South,170,9.0,14.0,73,0.00,,,-99.99,,2013-10-05 03:45:00,
2013-10-04 23:24:00,76.0,67.0,-100.00,South,175,9.0,14.0,73,0.00,,,-99.99,,2013-10-05 04:24:00,
2013-10-04 23:43:00,77.0,68.0,-100.00,South,185,11.0,16.0,73,0.00,,,-99.99,,2013-10-05 04:43:00,